Hermleigh, Texas
Current Conditions -  °F | °C
As of 9:55 AM on Wednesday 26 Nov 2014 (Local Time) from KSNK Reporting Station
Clear Clear  
Wind Chill: 44°   Ceiling: Unl
Heat Index: 48°   Visibility: 10mi
Dew Point: 28°   Wind: 10mph
Humidity: 46%   Direction: 20°NNE
Pressure: 30.26"   Gusts: NA
Location:  32.64°N, 100.76°W
Report Text: KSNK 261555Z AUTO 02009KT 10SM CLR 09/M02 A3026 RMK AO2 T00901020
Loading
Personal Weather Stations






























Interactive Weather Map New forecast layout! Learn more

10-Day Weather Forecast

Advertisements
Track Severe Weather on mobile